Silver Cloud — C6MQ5 — position and weather

sailwx.info

Track history (hours):
 
Tides and Currents Weather Stations Pressure Air Temp Water Temp Dewpoint Dewpoint Depression Visibility Wind Speed Wind Dir Waves Ship Positions

Silver Cloud

Operator: V Ships Leisure SAM

Last reported at 2019-Oct-12 01:42 UTC. Time now 2019-Oct-18 08:38 UTC.
Position N 26°07' W 079°47'.

Length 156 m; draft 5.7 m.

Type: Passenger vessel. MMSI: 309027000.

Date/timePositionNaut miles runAvg speedWind from/ knotsBaromVisibWave heightAir tempDewpointWater temp
2019-Oct-12 01:42N 26°07' W 079°47'315.5
2019-Oct-12 01:30N 26°07' W 079°50'713.6
2019-Oct-12 01:00N 26°06' W 079°58'713.7
2019-Oct-12 00:30N 26°05' W 080°05'2 2.8
2019-Oct-11 23:56N 26°05' W 080°07'0 0.0
2019-Oct-11 23:29N 26°05' W 080°07'0 0.0
2019-Oct-11 22:59N 26°05' W 080°07'0 0.0
2019-Oct-11 22:23N 26°05' W 080°07'0 0.0
2019-Oct-11 21:59N 26°05' W 080°07'0 0.0
2019-Oct-11 21:29N 26°05' W 080°07'0 0.0
2019-Oct-11 20:59N 26°05' W 080°07'0 0.0
2019-Oct-11 20:29N 26°05' W 080°07'0 0.0
2019-Oct-11 19:56N 26°05' W 080°07'0 0.0
2019-Oct-11 19:29N 26°05' W 080°07'0 0.0
2019-Oct-11 18:59N 26°05' W 080°07'0 0.0
2019-Oct-11 18:29N 26°05' W 080°07'0 0.0
2019-Oct-11 17:56N 26°05' W 080°07'0 0.0
2019-Oct-11 17:29N 26°05' W 080°07'0 0.0
2019-Oct-11 16:59N 26°05' W 080°07'0 0.0
2019-Oct-11 16:29N 26°05' W 080°07'0 0.0
2019-Oct-11 15:59N 26°05' W 080°07'0 0.0
2019-Oct-11 15:29N 26°05' W 080°07'0 0.0
2019-Oct-11 14:56N 26°05' W 080°07'0 0.0
2019-Oct-11 14:29N 26°05' W 080°07'0 0.0
2019-Oct-11 13:53N 26°05' W 080°07'0 0.0
2019-Oct-11 13:29N 26°05' W 080°07'0 0.0
2019-Oct-11 12:59N 26°05' W 080°07'0 0.0
2019-Oct-11 12:26N 26°05' W 080°07'0 0.0
2019-Oct-11 11:59N 26°05' W 080°07'0 0.0
2019-Oct-11 11:23N 26°05' W 080°07'0 0.0
2019-Oct-11 10:56N 26°05' W 080°07'0 0.0
2019-Oct-11 10:29N 26°05' W 080°07'0 0.6
2019-Oct-11 10:00N 26°06' W 080°07'4 8.1
2019-Oct-11 09:30N 26°06' W 080°02'611.0
2019-Oct-11 09:00N 26°10' W 079°58'511.0
2019-Oct-11 08:30N 26°15' W 079°57'  
2019-Oct-08 02:07N 36°51' W 076°18'2 0.1
2019-Oct-07 00:36N 36°52' W 076°20'20010.8
2019-Oct-06 06:00N 39°36' W 073°53'6312.2
2019-Oct-06 00:52N 40°38' W 074°03'410.3
2019-Oct-06 00:30N 40°42' W 074°02'2 0.0
2019-Oct-04 11:10N 40°43' W 074°01'1 8.4
2019-Oct-04 11:00N 40°42' W 074°02'158 5.8
2019-Oct-03 07:57N 41°34' W 070°44'511.8
2019-Oct-03 07:30N 41°39' W 070°41'611.1
2019-Oct-03 06:59N 41°44' W 070°38'  
Track history (hours):
 
Tides and Currents Weather Stations Pressure Air Temp Water Temp Dewpoint Dewpoint Depression Visibility Wind Speed Wind Dir Waves Ship Positions

Silver Cloud

Operator: V Ships Leisure SAM

Last reported at 2019-Oct-12 01:42 UTC. Time now 2019-Oct-18 08:38 UTC.
Position N 26°07' W 079°47'.

Length 156 m; draft 5.7 m.

Type: Passenger vessel. MMSI: 309027000.

Date/timePositionNaut miles runAvg speedWind from/ knotsBaromVisibWave heightAir tempDewpointWater temp
2019-Oct-12 01:42N 26°07' W 079°47'315.5
2019-Oct-12 01:30N 26°07' W 079°50'713.6
2019-Oct-12 01:00N 26°06' W 079°58'713.7
2019-Oct-12 00:30N 26°05' W 080°05'2 2.8
2019-Oct-11 23:56N 26°05' W 080°07'0 0.0
2019-Oct-11 23:29N 26°05' W 080°07'0 0.0
2019-Oct-11 22:59N 26°05' W 080°07'0 0.0
2019-Oct-11 22:23N 26°05' W 080°07'0 0.0
2019-Oct-11 21:59N 26°05' W 080°07'0 0.0
2019-Oct-11 21:29N 26°05' W 080°07'0 0.0
2019-Oct-11 20:59N 26°05' W 080°07'0 0.0
2019-Oct-11 20:29N 26°05' W 080°07'0 0.0
2019-Oct-11 19:56N 26°05' W 080°07'0 0.0
2019-Oct-11 19:29N 26°05' W 080°07'0 0.0
2019-Oct-11 18:59N 26°05' W 080°07'0 0.0
2019-Oct-11 18:29N 26°05' W 080°07'0 0.0
2019-Oct-11 17:56N 26°05' W 080°07'0 0.0
2019-Oct-11 17:29N 26°05' W 080°07'0 0.0
2019-Oct-11 16:59N 26°05' W 080°07'0 0.0
2019-Oct-11 16:29N 26°05' W 080°07'0 0.0
2019-Oct-11 15:59N 26°05' W 080°07'0 0.0
2019-Oct-11 15:29N 26°05' W 080°07'0 0.0
2019-Oct-11 14:56N 26°05' W 080°07'0 0.0
2019-Oct-11 14:29N 26°05' W 080°07'0 0.0
2019-Oct-11 13:53N 26°05' W 080°07'0 0.0
2019-Oct-11 13:29N 26°05' W 080°07'0 0.0
2019-Oct-11 12:59N 26°05' W 080°07'0 0.0
2019-Oct-11 12:26N 26°05' W 080°07'0 0.0
2019-Oct-11 11:59N 26°05' W 080°07'0 0.0
2019-Oct-11 11:23N 26°05' W 080°07'0 0.0
2019-Oct-11 10:56N 26°05' W 080°07'0 0.0
2019-Oct-11 10:29N 26°05' W 080°07'0 0.6
2019-Oct-11 10:00N 26°06' W 080°07'4 8.1
2019-Oct-11 09:30N 26°06' W 080°02'611.0
2019-Oct-11 09:00N 26°10' W 079°58'511.0
2019-Oct-11 08:30N 26°15' W 079°57'  
2019-Oct-08 02:07N 36°51' W 076°18'2 0.1
2019-Oct-07 00:36N 36°52' W 076°20'20010.8
2019-Oct-06 06:00N 39°36' W 073°53'6312.2
2019-Oct-06 00:52N 40°38' W 074°03'410.3
2019-Oct-06 00:30N 40°42' W 074°02'2 0.0
2019-Oct-04 11:10N 40°43' W 074°01'1 8.4
2019-Oct-04 11:00N 40°42' W 074°02'158 5.8
2019-Oct-03 07:57N 41°34' W 070°44'511.8
2019-Oct-03 07:30N 41°39' W 070°41'611.1
2019-Oct-03 06:59N 41°44' W 070°38'  

Dump ship's entire track history